Time;durP1;ratioP1;P1;durP2;ratioP2;P2;SDS_P1;SDS_P2;PMS_P1;PMS_P2;Temp;Humidity;BMP_temperature;BMP_pressure;BME280_temperature;BME280_humidity;BME280_pressure;Samples;Min_cycle;Max_cycle;Signal;HPM_P1;HPM_P2
2022/09/04 00:02:47;;;;;;;10.30;8.20;;;;;;;12.42;80.78;98191.63;105916;1281;22742;-83
2022/09/04 00:05:23;;;;;;;9.60;8.40;;;;;;;12.39;80.77;98188.31;105867;1281;22655;-84
2022/09/04 00:08:00;;;;;;;9.30;8.40;;;;;;;12.37;80.74;98188.84;106110;1280;23161;-83
2022/09/04 00:11:02;;;;;;;8.80;8.00;;;;;;;12.37;80.80;98191.22;106117;1281;22690;-84
2022/09/04 00:13:37;;;;;;;7.70;6.90;;;;;;;12.36;81.20;98191.79;106138;1279;25465;-84
2022/09/04 00:16:15;;;;;;;9.90;8.70;;;;;;;12.33;81.64;98187.17;106083;1279;22701;-83
2022/09/04 00:18:48;;;;;;;11.30;8.40;;;;;;;12.30;81.60;98188.86;106136;1281;25308;-85
2022/09/04 00:21:44;;;;;;;9.40;8.40;;;;;;;12.29;81.15;98185.71;106109;1278;22544;-83
2022/09/04 00:24:16;;;;;;;9.20;8.00;;;;;;;12.25;81.35;98183.29;106066;1281;24245;-84
2022/09/04 00:27:03;;;;;;;9.50;8.10;;;;;;;12.24;81.65;98179.75;106104;1281;26663;-83
2022/09/04 00:29:40;;;;;;;8.70;7.70;;;;;;;12.25;81.84;98178.96;106494;1271;24357;-84
2022/09/04 00:32:26;;;;;;;8.90;7.90;;;;;;;12.26;82.33;98180.00;106456;1271;22636;-84
2022/09/04 00:35:03;;;;;;;9.00;8.10;;;;;;;12.25;82.15;98187.73;106423;1271;25346;-84
2022/09/04 00:37:37;;;;;;;9.80;8.80;;;;;;;12.25;81.91;98185.07;106427;1271;22552;-83
2022/09/04 00:40:12;;;;;;;9.90;8.60;;;;;;;12.24;81.81;98183.59;106426;1271;22568;-83
2022/09/04 00:43:05;;;;;;;9.70;8.00;;;;;;;12.21;82.25;98180.52;106422;1271;24167;-84
2022/09/04 00:46:12;;;;;;;8.80;7.90;;;;;;;12.22;81.83;98187.03;106508;1271;22560;-84
2022/09/04 00:49:02;;;;;;;8.50;7.70;;;;;;;12.23;82.22;98191.05;106215;1271;22535;-84
2022/09/04 00:51:58;;;;;;;9.90;9.00;;;;;;;12.24;82.61;98188.84;106485;1271;22547;-82
2022/09/04 00:54:44;;;;;;;9.50;8.60;;;;;;;12.23;82.69;98192.73;106500;1271;25399;-82
2022/09/04 00:57:39;;;;;;;8.30;7.50;;;;;;;12.24;82.59;98191.06;106452;1271;22546;-83
2022/09/04 01:00:11;;;;;;;8.70;7.80;;;;;;;12.26;82.64;98196.36;106360;1271;22655;-84
2022/09/04 01:02:58;;;;;;;10.00;9.00;;;;;;;12.28;82.50;98194.09;106439;1271;24351;-84
2022/09/04 01:05:44;;;;;;;11.10;9.90;;;;;;;12.29;82.96;98193.66;106419;1271;24367;-83
2022/09/04 01:09:00;;;;;;;9.90;9.00;;;;;;;12.26;82.66;98192.20;106254;1272;22515;-82
2022/09/04 01:11:44;;;;;;;;;;;;;;;12.26;82.26;98191.97;106591;1270;22872;-82
2022/09/04 01:14:24;;;;;;;9.30;8.40;;;;;;;12.25;82.29;98194.60;106394;1271;22541;-83
2022/09/04 01:17:00;;;;;;;8.80;8.00;;;;;;;12.26;82.80;98194.64;106485;1271;22518;-84
2022/09/04 01:19:50;;;;;;;10.70;9.30;;;;;;;12.24;82.79;98196.59;106461;1271;25505;-82
2022/09/04 01:22:32;;;;;;;10.60;9.60;;;;;;;12.23;82.59;98200.59;106511;1271;23018;-83
2022/09/04 01:25:47;;;;;;;11.00;10.00;;;;;;;12.20;82.75;98195.13;106492;1271;22545;-83
2022/09/04 01:28:41;;;;;;;9.90;9.00;;;;;;;12.16;83.00;98192.95;106532;1271;22535;-83
2022/09/04 01:31:30;;;;;;;9.70;8.10;;;;;;;12.15;83.23;98192.31;106465;1271;25341;-83
2022/09/04 01:34:13;;;;;;;8.50;7.70;;;;;;;12.19;83.23;98191.20;106403;1271;22695;-83
2022/09/04 01:36:59;;;;;;;8.70;7.90;;;;;;;12.20;83.38;98188.79;106419;1271;24745;-83
2022/09/04 01:39:31;;;;;;;9.20;8.30;;;;;;;12.20;83.53;98189.30;106442;1271;22617;-84
2022/09/04 01:42:17;;;;;;;9.70;8.80;;;;;;;12.18;83.16;98196.90;106438;1271;22844;-83
2022/09/04 01:44:47;;;;;;;9.40;8.50;;;;;;;12.15;83.16;98201.17;106461;1271;22525;-84
2022/09/04 01:47:27;;;;;;;7.70;7.00;;;;;;;12.16;83.11;98207.23;106419;1271;25335;-84
2022/09/04 01:50:05;;;;;;;8.20;7.40;;;;;;;12.18;83.25;98210.84;106373;1271;24380;-82
2022/09/04 01:52:47;;;;;;;10.10;8.40;;;;;;;12.19;83.19;98213.10;106423;1271;22525;-84
2022/09/04 01:55:43;;;;;;;9.70;8.80;;;;;;;12.17;83.04;98213.40;106356;1270;24211;-85
2022/09/04 01:58:39;;;;;;;10.20;9.30;;;;;;;12.14;83.08;98215.46;106500;1271;22541;-84
2022/09/04 02:01:24;;;;;;;11.10;8.50;;;;;;;12.09;82.91;98211.50;106483;1271;22682;-84
2022/09/04 02:04:06;;;;;;;8.60;7.70;;;;;;;12.09;83.25;98210.21;106513;1271;23648;-85
2022/09/04 02:06:50;;;;;;;9.00;8.10;;;;;;;12.06;83.37;98215.30;106503;1271;25404;-83
2022/09/04 02:09:43;;;;;;;10.50;9.50;;;;;;;12.05;83.93;98217.90;106169;1271;24398;-85
2022/09/04 02:12:41;;;;;;;10.70;9.50;;;;;;;12.02;83.44;98213.54;106472;1271;26602;-85
2022/09/04 02:15:38;;;;;;;10.10;9.00;;;;;;;12.00;83.73;98207.27;106521;1271;22684;-85
2022/09/04 02:18:19;;;;;;;9.90;8.90;;;;;;;11.94;83.76;98203.01;106473;1271;22814;-85
2022/09/04 02:21:32;;;;;;;8.50;7.70;;;;;;;11.92;83.67;98202.39;106334;1271;23173;-85
2022/09/04 02:24:29;;;;;;;8.80;8.00;;;;;;;11.91;84.21;98196.51;105799;1279;24169;-84
2022/09/04 02:27:10;;;;;;;9.90;9.00;;;;;;;11.88;84.30;98191.33;105789;1279;23451;-86
2022/09/04 02:30:00;;;;;;;9.40;8.50;;;;;;;11.83;84.37;98191.73;105731;1280;22886;-85
2022/09/04 02:32:56;;;;;;;9.90;8.20;;;;;;;11.81;84.58;98197.05;106032;1280;28087;-84
2022/09/04 02:35:33;;;;;;;11.90;8.10;;;;;;;11.81;84.44;98200.99;105939;1279;25589;-84
2022/09/04 02:38:09;;;;;;;9.60;8.80;;;;;;;11.87;84.56;98207.19;105699;1280;23554;-83
2022/09/04 02:40:50;;;;;;;9.50;8.70;;;;;;;11.87;84.83;98205.83;105731;1280;22644;-83
2022/09/04 02:43:43;;;;;;;10.50;9.60;;;;;;;11.86;84.76;98205.64;105983;1279;22580;-84
2022/09/04 02:46:17;;;;;;;9.60;8.30;;;;;;;11.84;84.62;98203.16;106028;1280;22671;-85
2022/09/04 02:49:21;;;;;;;9.00;8.10;;;;;;;11.85;84.55;98199.54;106060;1279;24320;-86
2022/09/04 02:52:16;;;;;;;8.80;8.00;;;;;;;11.92;84.94;98194.02;105495;1284;24769;-86
2022/09/04 02:55:02;;;;;;;;;;;;;;;11.92;85.36;98195.96;105931;1277;24211;-83
2022/09/04 02:57:58;;;;;;;10.00;9.20;;;;;;;11.89;85.26;98192.77;106096;1277;22801;-85
2022/09/04 03:00:53;;;;;;;9.10;8.20;;;;;;;11.88;85.02;98192.91;106612;1277;25324;-82
2022/09/04 03:03:36;;;;;;;9.50;8.50;;;;;;;11.93;84.96;98189.66;107042;1277;23959;-82
2022/09/04 03:06:23;;;;;;;8.80;8.00;;;;;;;11.98;85.14;98187.31;106361;1277;22548;-83
2022/09/04 03:09:05;;;;;;;9.60;8.70;;;;;;;12.08;84.95;98181.61;106043;1277;22616;-83
2022/09/04 03:11:39;;;;;;;10.10;9.00;;;;;;;12.08;84.98;98181.06;106333;1277;23932;-85
2022/09/04 03:14:23;;;;;;;9.80;8.80;;;;;;;12.05;84.79;98176.54;106410;1277;22540;-82
2022/09/04 03:17:00;;;;;;;10.60;8.40;;;;;;;12.01;84.85;98177.53;106253;1277;25350;-83
2022/09/04 03:19:53;;;;;;;10.50;7.80;;;;;;;11.99;84.79;98178.17;106380;1277;22620;-83
2022/09/04 03:22:21;;;;;;;8.20;7.40;;;;;;;11.99;85.00;98171.19;107311;1277;22620;-83
2022/09/04 03:25:23;;;;;;;10.10;8.90;;;;;;;11.99;85.09;98175.60;107466;1277;22678;-82
2022/09/04 03:27:51;;;;;;;9.50;8.70;;;;;;;11.99;85.03;98174.96;107065;1277;25303;-81
2022/09/04 03:30:19;;;;;;;10.20;9.20;;;;;;;11.99;85.28;98178.52;106691;1271;22552;-82
2022/09/04 03:33:06;;;;;;;9.20;7.80;;;;;;;12.01;85.47;98181.36;106463;1272;25611;-81
2022/09/04 03:36:14;;;;;;;8.50;7.60;;;;;;;12.03;85.51;98184.55;106416;1271;23205;-81
2022/09/04 03:39:01;;;;;;;8.30;7.20;;;;;;;12.13;85.33;98183.16;106586;1271;22541;-82
2022/09/04 03:41:44;;;;;;;7.70;7.00;;;;;;;12.20;85.28;98187.52;106626;1270;22716;-81
2022/09/04 03:44:33;;;;;;;8.70;7.70;;;;;;;12.34;85.50;98186.08;106563;1271;22547;-82
2022/09/04 03:47:26;;;;;;;9.10;8.20;;;;;;;12.44;85.11;98191.71;106594;1271;23295;-83
2022/09/04 03:50:16;;;;;;;9.90;8.30;;;;;;;12.38;84.70;98194.12;106326;1271;22888;-82
2022/09/04 03:52:55;;;;;;;8.20;7.30;;;;;;;12.31;85.07;98192.48;106444;1271;22703;-80
2022/09/04 03:55:36;;;;;;;7.90;7.10;;;;;;;12.29;84.89;98196.23;106457;1271;22648;-81
2022/09/04 03:58:35;;;;;;;9.00;8.10;;;;;;;12.29;85.18;98198.13;106422;1271;22682;-81
2022/09/04 04:01:12;;;;;;;9.40;8.50;;;;;;;12.24;84.94;98199.09;106473;1271;24405;-81
2022/09/04 04:04:17;;;;;;;9.70;7.60;;;;;;;12.24;85.07;98194.98;106429;1271;22589;-83
2022/09/04 04:06:56;;;;;;;8.40;7.60;;;;;;;12.29;84.99;98193.66;106418;1271;22877;-83
2022/09/04 04:09:45;;;;;;;8.30;7.40;;;;;;;12.30;84.70;98194.50;106493;1271;22522;-83
2022/09/04 04:12:38;;;;;;;7.80;7.00;;;;;;;12.30;84.69;98194.50;106326;1271;22853;-83
2022/09/04 04:15:28;;;;;;;8.20;7.50;;;;;;;12.41;85.23;98195.17;106223;1271;22919;-82
2022/09/04 04:18:26;;;;;;;8.50;7.70;;;;;;;12.54;84.72;98200.26;106634;1271;23345;-89
2022/09/04 04:21:18;;;;;;;9.00;8.20;;;;;;;12.51;84.41;98203.06;106482;1271;22563;-87
2022/09/04 04:24:05;;;;;;;8.30;7.50;;;;;;;12.40;84.31;98201.14;106571;1271;23319;-88
2022/09/04 04:26:48;;;;;;;9.10;7.20;;;;;;;12.33;84.31;98206.01;106611;1271;25331;-89
2022/09/04 04:29:54;;;;;;;7.30;6.60;;;;;;;12.27;84.32;98211.35;106488;1271;24287;-89
2022/09/04 04:32:40;;;;;;;8.50;7.70;;;;;;;12.25;84.51;98223.95;106620;1271;22525;-89
2022/09/04 04:35:44;;;;;;;8.80;8.00;;;;;;;12.22;84.31;98221.51;106552;1271;25341;-88
2022/09/04 04:38:27;;;;;;;8.70;7.90;;;;;;;12.15;84.37;98217.55;106304;1271;24262;-88
2022/09/04 04:48:06;;;;;;;7.50;6.80;;;;;;;12.05;84.78;98226.55;105955;1278;23263;-89
2022/09/04 04:50:39;;;;;;;8.80;8.00;;;;;;;12.07;84.88;98227.77;105967;1278;25413;-88
2022/09/04 04:53:19;;;;;;;8.60;7.70;;;;;;;12.06;84.80;98228.92;105966;1277;22534;-87
2022/09/04 04:55:56;;;;;;;9.10;8.20;;;;;;;12.07;84.94;98230.04;106321;1280;25292;-90
2022/09/04 04:58:47;;;;;;;9.20;7.60;;;;;;;12.08;84.78;98235.94;106430;1278;22566;-87
2022/09/04 05:01:33;;;;;;;8.90;7.60;;;;;;;12.12;84.74;98239.60;106047;1280;22569;-87
2022/09/04 05:04:10;;;;;;;7.90;6.80;;;;;;;12.19;84.76;98241.77;105861;1278;23111;-87
2022/09/04 05:06:44;;;;;;;9.60;7.60;;;;;;;12.22;84.78;98249.27;105886;1280;22547;-87
2022/09/04 05:09:33;;;;;;;8.30;7.50;;;;;;;12.23;84.82;98256.21;105957;1278;22604;-87
2022/09/04 05:12:38;;;;;;;7.90;7.10;;;;;;;12.22;84.76;98259.12;105892;1280;22532;-85
2022/09/04 05:15:17;;;;;;;7.00;6.30;;;;;;;12.19;84.65;98268.02;105893;1280;22659;-88
2022/09/04 05:18:26;;;;;;;8.20;6.50;;;;;;;12.19;84.86;98274.58;105859;1278;25634;-86
2022/09/04 05:21:24;;;;;;;9.20;6.40;;;;;;;12.23;84.96;98276.65;106450;1271;25330;-86
2022/09/04 05:24:01;;;;;;;7.80;7.00;;;;;;;12.24;84.88;98268.81;106416;1271;22534;-86
2022/09/04 05:26:30;;;;;;;8.30;7.50;;;;;;;12.29;85.03;98277.95;106382;1271;24283;-87
2022/09/04 05:29:03;;;;;;;7.10;6.40;;;;;;;12.27;84.96;98280.58;106619;1271;23370;-87
2022/09/04 05:31:34;;;;;;;7.40;6.70;;;;;;;12.26;84.80;98284.22;106560;1271;22702;-85
2022/09/04 05:34:15;;;;;;;7.50;6.70;;;;;;;12.26;84.84;98283.84;106564;1271;26710;-88
2022/09/04 05:37:05;;;;;;;7.10;6.40;;;;;;;12.31;84.93;98289.32;106594;1271;25324;-88
2022/09/04 05:39:45;;;;;;;7.70;6.90;;;;;;;12.32;84.76;98294.33;106448;1271;22607;-87
2022/09/04 05:42:32;;;;;;;7.70;7.00;;;;;;;12.33;84.81;98296.39;106524;1271;22683;-87
2022/09/04 05:45:09;;;;;;;8.60;7.70;;;;;;;12.31;84.70;98297.75;106597;1271;25474;-88
2022/09/04 05:48:20;;;;;;;10.90;7.40;;;;;;;12.31;84.73;98296.03;106579;1271;24328;-87
2022/09/04 05:50:51;;;;;;;7.70;7.00;;;;;;;12.35;84.76;98297.41;106476;1271;25305;-87
2022/09/04 05:53:40;;;;;;;8.80;7.40;;;;;;;12.38;84.96;98301.88;106549;1271;24162;-87
2022/09/04 05:56:20;;;;;;;7.60;6.90;;;;;;;12.43;84.98;98305.99;106556;1271;24233;-89
2022/09/04 05:59:03;;;;;;;8.10;7.20;;;;;;;12.48;84.88;98303.90;106504;1271;22616;-88
2022/09/04 06:01:43;;;;;;;8.90;8.00;;;;;;;12.53;84.88;98304.17;106583;1271;23192;-90
2022/09/04 06:04:39;;;;;;;7.40;6.70;;;;;;;12.53;84.78;98300.40;106532;1271;22544;-89
2022/09/04 06:07:26;;;;;;;7.20;6.50;;;;;;;12.51;85.04;98305.55;106591;1272;25469;-90
2022/09/04 06:09:54;;;;;;;7.40;6.70;;;;;;;12.50;85.08;98309.11;106534;1271;25357;-91
2022/09/04 06:12:45;;;;;;;8.10;7.30;;;;;;;12.51;85.29;98312.48;106602;1271;22640;-90
2022/09/04 06:15:35;;;;;;;9.20;8.00;;;;;;;12.53;84.98;98313.91;106637;1271;22537;-91
2022/09/04 06:18:28;;;;;;;9.30;7.10;;;;;;;12.52;85.06;98314.36;106554;1271;24332;-92
2022/09/04 06:21:24;;;;;;;7.40;6.70;;;;;;;12.55;85.09;98311.10;106746;1271;22714;-89
2022/09/04 06:24:30;;;;;;;7.40;6.70;;;;;;;12.62;84.86;98313.94;106502;1271;22521;-87
2022/09/04 06:27:28;;;;;;;8.00;7.00;;;;;;;12.69;85.06;98314.23;106797;1279;22584;-89
2022/09/04 06:30:11;;;;;;;7.80;7.10;;;;;;;12.76;85.08;98314.53;105831;1279;22790;-87
2022/09/04 06:32:53;;;;;;;10.40;7.70;;;;;;;12.78;85.08;98315.73;105856;1280;22554;-87
2022/09/04 06:35:49;;;;;;;7.90;7.20;;;;;;;12.80;85.15;98320.33;105817;1279;22667;-89
2022/09/04 06:38:30;;;;;;;7.10;6.40;;;;;;;12.87;85.04;98320.46;105943;1280;22801;-87
2022/09/04 06:41:32;;;;;;;7.90;6.70;;;;;;;12.94;85.08;98321.39;106044;1279;22529;-89
2022/09/04 06:44:21;;;;;;;7.80;7.10;;;;;;;12.99;84.91;98319.65;106076;1280;24220;-88
2022/09/04 06:46:59;;;;;;;7.60;6.80;;;;;;;13.03;84.83;98322.34;105952;1280;23938;-88
2022/09/04 06:50:04;;;;;;;7.60;6.80;;;;;;;13.07;84.72;98324.34;105913;1279;25238;-88
2022/09/04 06:53:14;;;;;;;7.00;6.30;;;;;;;13.13;84.51;98327.99;106003;1280;22541;-91
2022/09/04 06:56:14;;;;;;;7.40;6.10;;;;;;;13.22;84.70;98331.23;106053;1280;23090;-87
2022/09/04 06:58:44;;;;;;;6.90;6.20;;;;;;;13.28;84.48;98329.91;105959;1280;24212;-90
2022/09/04 07:01:24;;;;;;;7.00;6.40;;;;;;;13.34;84.34;98328.37;105978;1280;22694;-90
2022/09/04 07:04:28;;;;;;;6.70;6.00;;;;;;;13.40;84.13;98331.31;106460;1271;24297;-91
2022/09/04 07:07:24;;;;;;;6.40;5.80;;;;;;;13.46;83.83;98333.40;106592;1271;24291;-91
2022/09/04 07:09:59;;;;;;;6.40;5.60;;;;;;;13.55;83.81;98338.17;106593;1271;25389;-90
2022/09/04 07:12:47;;;;;;;6.30;5.70;;;;;;;13.59;83.42;98337.64;106606;1271;23543;-90
2022/09/04 07:15:34;;;;;;;6.70;6.10;;;;;;;13.65;83.14;98337.92;106535;1271;22847;-89
2022/09/04 07:18:11;;;;;;;7.20;5.50;;;;;;;13.71;82.72;98338.27;106556;1271;22654;-89
2022/09/04 07:20:58;;;;;;;6.00;5.30;;;;;;;13.77;83.01;98335.70;106557;1271;23235;-88
2022/09/04 07:23:43;;;;;;;5.80;5.20;;;;;;;13.91;82.68;98342.30;106609;1271;22697;-88
2022/09/04 07:26:27;;;;;;;6.90;5.50;;;;;;;14.02;82.87;98345.30;106529;1271;22765;-90
2022/09/04 07:29:34;;;;;;;5.50;4.90;;;;;;;14.14;82.47;98348.56;106548;1271;22530;-90
2022/09/04 07:32:22;;;;;;;6.40;5.70;;;;;;;14.18;81.81;98346.69;106715;1271;24315;-87
2022/09/04 07:35:00;;;;;;;6.40;5.50;;;;;;;14.23;81.96;98345.74;106402;1271;22686;-89
2022/09/04 07:37:39;;;;;;;5.70;4.50;;;;;;;14.30;81.94;98345.17;106698;1271;23365;-90
2022/09/04 07:40:08;;;;;;;5.80;4.80;;;;;;;14.44;81.34;98349.66;106449;1274;24352;-89
2022/09/04 07:43:08;;;;;;;5.20;4.60;;;;;;;14.51;81.35;98353.73;106583;1271;22564;-90
2022/09/04 07:45:50;;;;;;;7.20;4.60;;;;;;;14.62;80.59;98366.66;106623;1270;22561;-88
2022/09/04 07:48:21;;;;;;;5.80;4.70;;;;;;;14.69;80.23;98369.41;106587;1271;22720;-91
2022/09/04 07:51:09;;;;;;;7.00;4.50;;;;;;;14.72;79.92;98373.83;106566;1271;23192;-89
2022/09/04 07:54:16;;;;;;;5.70;4.70;;;;;;;14.79;79.90;98380.73;106551;1274;22684;-91
2022/09/04 07:57:02;;;;;;;5.90;5.10;;;;;;;14.89;79.84;98388.48;106665;1271;25504;-89
2022/09/04 07:59:58;;;;;;;6.60;4.40;;;;;;;14.95;79.36;98390.65;106542;1271;25506;-90
2022/09/04 08:02:36;;;;;;;6.00;4.80;;;;;;;14.94;79.03;98398.82;106642;1271;25354;-88
2022/09/04 08:05:32;;;;;;;5.70;4.90;;;;;;;14.99;79.26;98400.90;107074;1271;22548;-92
2022/09/04 08:08:46;;;;;;;5.70;5.10;;;;;;;15.15;79.16;98402.61;107165;1270;22638;-89
2022/09/04 08:11:39;;;;;;;6.60;5.20;;;;;;;15.35;78.43;98405.78;106615;1271;25579;-88
2022/09/04 08:14:22;;;;;;;6.20;4.90;;;;;;;15.45;78.07;98401.02;107485;1271;26599;-90
2022/09/04 08:17:19;;;;;;;6.10;5.00;;;;;;;15.67;78.07;98407.69;106540;1271;25923;-90
2022/09/04 08:20:23;;;;;;;4.80;4.30;;;;;;;15.85;77.57;98410.77;106827;1271;25691;-90
2022/09/04 08:23:33;;;;;;;4.90;4.30;;;;;;;16.05;76.90;98407.15;106563;1271;23283;-89
2022/09/04 08:26:01;;;;;;;6.70;3.80;;;;;;;16.25;76.78;98416.32;106627;1271;24126;-88
2022/09/04 08:29:03;;;;;;;4.40;4.00;;;;;;;16.37;76.64;98415.72;106541;1271;25216;-91
2022/09/04 08:31:41;;;;;;;4.70;4.10;;;;;;;16.40;75.36;98422.04;106521;1271;22691;-91
2022/09/04 08:34:39;;;;;;;5.00;4.50;;;;;;;16.33;74.86;98425.14;106653;1274;22642;-91
2022/09/04 08:37:27;;;;;;;4.60;3.80;;;;;;;16.24;74.39;98430.63;106487;1271;22547;-92
2022/09/04 08:40:08;;;;;;;5.80;4.60;;;;;;;16.24;74.29;98433.05;107678;1271;25215;-93
2022/09/04 08:43:14;;;;;;;5.10;4.40;;;;;;;16.34;74.86;98434.25;108210;1271;22541;-93
2022/09/04 08:45:58;;;;;;;6.60;4.10;;;;;;;16.49;75.00;98439.08;107734;1271;25344;-92
2022/09/04 08:49:00;;;;;;;4.80;3.60;;;;;;;16.68;74.84;98437.39;107919;1271;23863;-92
2022/09/04 08:51:47;;;;;;;5.70;5.00;;;;;;;16.79;74.23;98439.69;106891;1271;22541;-91
2022/09/04 08:54:47;;;;;;;4.80;3.60;;;;;;;16.77;73.96;98446.18;106850;1271;24077;-92
2022/09/04 08:57:27;;;;;;;5.10;3.90;;;;;;;16.71;73.61;98455.02;107679;1271;25359;-91
2022/09/04 09:00:09;;;;;;;5.00;4.00;;;;;;;16.68;73.22;98459.21;106772;1271;22706;-93
2022/09/04 09:02:56;;;;;;;4.30;3.90;;;;;;;16.59;72.79;98462.90;107151;1271;25222;-91
2022/09/04 09:05:46;;;;;;;4.30;3.80;;;;;;;16.56;73.36;98469.02;107264;1271;25334;-92
2022/09/04 09:08:51;;;;;;;3.70;3.30;;;;;;;16.55;73.06;98471.54;107600;1271;22523;-92
2022/09/04 09:11:35;;;;;;;5.40;3.60;;;;;;;16.54;73.42;98480.51;107664;1271;24194;-92
2022/09/04 09:14:24;;;;;;;4.10;3.60;;;;;;;16.59;73.40;98486.45;108657;1271;22535;-92
2022/09/04 09:17:11;;;;;;;5.30;4.00;;;;;;;16.57;72.80;98490.02;108709;1271;26615;-93
2022/09/04 09:19:58;;;;;;;5.20;3.70;;;;;;;16.60;72.89;98495.58;108124;1271;25303;-92
2022/09/04 09:22:38;;;;;;;4.60;3.80;;;;;;;16.66;73.03;98495.54;107366;1271;25295;-93
2022/09/04 09:25:30;;;;;;;5.20;3.80;;;;;;;16.71;72.85;98493.02;107524;1271;25231;-90
2022/09/04 09:28:16;;;;;;;4.40;3.40;;;;;;;16.68;72.64;98491.04;107385;1271;25482;-92
2022/09/04 09:31:26;;;;;;;5.10;3.60;;;;;;;16.75;73.34;98492.30;107473;1271;22549;-93
2022/09/04 09:34:16;;;;;;;4.20;3.80;;;;;;;16.88;72.98;98491.73;106563;1271;25589;-91
2022/09/04 09:37:01;;;;;;;4.30;3.80;;;;;;;16.90;72.39;98492.67;107680;1271;24182;-92
2022/09/04 09:40:00;;;;;;;5.00;4.10;;;;;;;16.94;72.88;98491.39;107479;1271;22620;-91
2022/09/04 09:43:08;;;;;;;4.60;4.10;;;;;;;17.05;72.78;98484.35;106774;1271;24387;-92
2022/09/04 09:45:48;;;;;;;4.80;4.30;;;;;;;17.11;72.49;98482.51;107047;1271;23199;-86
2022/09/04 09:48:44;;;;;;;5.10;4.40;;;;;;;17.19;72.14;98479.55;106730;1271;22557;-90
2022/09/04 09:54:47;;;;;;;6.10;4.60;;;;;;;17.40;71.82;98471.14;108176;1265;1607726;-92
2022/09/04 09:57:23;;;;;;;4.70;3.90;;;;;;;17.53;71.79;98469.10;109138;1273;22603;-92
2022/09/04 10:00:04;;;;;;;4.20;3.70;;;;;;;17.65;71.26;98472.23;109578;1274;23151;-91
2022/09/04 10:03:19;;;;;;;4.90;4.00;;;;;;;17.82;71.36;98477.10;109002;1264;26773;-93
2022/09/04 10:06:03;;;;;;;5.00;4.20;;;;;;;18.05;70.57;98470.17;106862;1274;22691;-91
2022/09/04 10:08:59;;;;;;;5.90;4.10;;;;;;;18.32;70.13;98472.86;106993;1274;24244;-94
2022/09/04 10:12:01;;;;;;;5.20;4.20;;;;;;;18.50;69.20;98465.76;106688;1274;23181;-89
2022/09/04 10:14:51;;;;;;;5.80;3.80;;;;;;;18.45;68.61;98461.29;107095;1274;22646;-91
2022/09/04 10:17:56;;;;;;;5.10;3.80;;;;;;;18.40;68.59;98460.59;106889;1274;25614;-90
2022/09/04 10:20:52;;;;;;;8.30;4.00;;;;;;;18.34;68.06;98463.41;106572;1274;22645;-91
2022/09/04 10:23:40;;;;;;;5.60;4.00;;;;;;;18.29;68.07;98464.63;106572;1273;22658;-89
2022/09/04 10:26:38;;;;;;;5.00;3.80;;;;;;;18.27;68.47;98471.89;106380;1274;24978;-85
2022/09/04 10:29:33;;;;;;;4.60;3.30;;;;;;;18.32;68.17;98475.44;106485;1274;23098;-86
2022/09/04 10:32:09;;;;;;;6.20;4.20;;;;;;;18.39;68.18;98479.48;106644;1274;23347;-89
2022/09/04 10:34:45;;;;;;;5.00;3.80;;;;;;;18.41;68.18;98481.41;106477;1274;22666;-85
2022/09/04 10:37:42;;;;;;;6.40;5.10;;;;;;;18.49;68.59;98480.20;106780;1274;26170;-85
2022/09/04 10:40:34;;;;;;;6.10;4.70;;;;;;;18.58;68.25;98480.23;106819;1273;22553;-85
2022/09/04 10:43:29;;;;;;;4.20;3.80;;;;;;;18.57;67.56;98482.45;106849;1274;24091;-85
2022/09/04 10:46:09;;;;;;;5.10;4.40;;;;;;;18.66;68.08;98485.33;106464;1274;22799;-85
2022/09/04 10:49:28;;;;;;;6.90;4.70;;;;;;;18.68;67.34;98487.89;106729;1274;25691;-87
2022/09/04 10:52:08;;;;;;;6.30;4.80;;;;;;;18.59;67.59;98491.80;106773;1274;22558;-84
2022/09/04 10:55:13;;;;;;;5.40;4.20;;;;;;;18.66;67.17;98487.73;106418;1274;22860;-86
2022/09/04 10:57:41;;;;;;;6.80;4.50;;;;;;;18.63;67.05;98493.20;106873;1274;23269;-85
2022/09/04 11:00:18;;;;;;;5.20;4.70;;;;;;;18.63;67.31;98497.48;106394;1274;25350;-84
2022/09/04 11:03:02;;;;;;;6.20;4.80;;;;;;;18.66;67.51;98495.23;106221;1274;22529;-87
2022/09/04 11:06:01;;;;;;;7.30;4.80;;;;;;;18.67;67.04;98497.44;106950;1274;25195;-84
2022/09/04 11:08:41;;;;;;;5.30;4.00;;;;;;;18.58;67.17;98498.55;106503;1274;22690;-90
2022/09/04 11:11:21;;;;;;;6.00;4.50;;;;;;;18.53;67.08;98508.65;106484;1274;25236;-87
2022/09/04 11:14:27;;;;;;;5.40;4.10;;;;;;;18.59;67.45;98504.83;106691;1274;24217;-86
2022/09/04 11:17:27;;;;;;;6.20;3.70;;;;;;;18.68;67.53;98504.48;106514;1274;25361;-83
2022/09/04 11:20:09;;;;;;;4.90;3.90;;;;;;;18.96;67.32;98507.21;107109;1274;22554;-82
2022/09/04 11:23:19;;;;;;;4.80;4.20;;;;;;;19.14;67.14;98508.27;106712;1273;25448;-83
2022/09/04 11:26:08;;;;;;;4.60;4.10;;;;;;;19.27;67.11;98511.27;106564;1274;22684;-82
2022/09/04 11:29:01;;;;;;;6.60;4.70;;;;;;;19.26;66.61;98514.12;106252;1274;25301;-82
2022/09/04 11:32:05;;;;;;;10.30;4.60;;;;;;;19.07;66.39;98515.45;106163;1274;22701;-81
2022/09/04 11:34:58;;;;;;;7.20;4.50;;;;;;;18.96;67.00;98511.89;106282;1273;22684;-82
2022/09/04 11:37:54;;;;;;;7.50;4.40;;;;;;;18.89;66.68;98509.71;106341;1274;25341;-82
2022/09/04 11:40:43;;;;;;;6.70;4.90;;;;;;;18.88;66.87;98508.31;106251;1274;25513;-83
2022/09/04 11:43:45;;;;;;;6.50;4.60;;;;;;;18.83;66.70;98507.72;106295;1274;22851;-85
2022/09/04 11:46:29;;;;;;;8.90;4.60;;;;;;;18.81;66.51;98505.98;106320;1274;22536;-83
2022/09/04 11:49:06;;;;;;;6.80;4.70;;;;;;;18.63;66.60;98504.89;106233;1274;22676;-81
2022/09/04 11:51:53;;;;;;;6.00;4.30;;;;;;;18.51;66.64;98508.22;106199;1274;22706;-82
2022/09/04 11:54:27;;;;;;;4.70;4.30;;;;;;;18.43;66.96;98510.87;106513;1274;22956;-83
2022/09/04 11:57:14;;;;;;;;;;;;;;;18.36;66.63;98510.96;106409;1274;25370;-80
2022/09/04 12:00:11;;;;;;;7.80;5.10;;;;;;;18.15;66.60;98506.23;106327;1274;25309;-82
2022/09/04 12:03:00;;;;;;;8.40;4.70;;;;;;;18.08;67.41;98512.30;106240;1274;25582;-83
2022/09/04 12:05:44;;;;;;;6.30;4.70;;;;;;;18.13;67.14;98508.03;106651;1274;22556;-84
2022/09/04 12:08:18;;;;;;;6.70;5.00;;;;;;;18.10;66.92;98514.84;106645;1273;22796;-81
2022/09/04 12:11:20;;;;;;;6.40;4.70;;;;;;;18.05;66.91;98513.09;106394;1274;25338;-83
2022/09/04 12:14:00;;;;;;;6.60;4.60;;;;;;;17.93;67.21;98514.91;106076;1274;22551;-83
2022/09/04 12:16:56;;;;;;;6.60;4.90;;;;;;;17.83;68.99;98513.35;106233;1274;22548;-81
2022/09/04 12:19:49;;;;;;;6.10;5.20;;;;;;;17.92;69.63;98513.08;106242;1274;24287;-83
2022/09/04 12:22:42;;;;;;;8.60;5.10;;;;;;;17.88;69.12;98512.98;106228;1274;22550;-84
2022/09/04 12:25:31;;;;;;;7.00;5.30;;;;;;;17.84;69.38;98510.96;106192;1274;24361;-84
2022/09/04 12:28:14;;;;;;;8.40;4.80;;;;;;;17.66;68.77;98515.49;106169;1274;22882;-83
2022/09/04 12:30:43;;;;;;;10.40;6.60;;;;;;;17.53;69.37;98515.20;106222;1274;22756;-84
2022/09/04 12:33:29;;;;;;;9.20;5.50;;;;;;;17.40;69.55;98515.45;106257;1274;26602;-83
2022/09/04 12:36:22;;;;;;;7.10;5.30;;;;;;;17.36;70.77;98510.48;106238;1274;25353;-84
2022/09/04 12:39:04;;;;;;;8.20;6.60;;;;;;;17.56;70.92;98510.21;106243;1274;24277;-82
2022/09/04 12:41:35;;;;;;;8.20;6.60;;;;;;;17.73;70.86;98504.14;106471;1274;22541;-82
2022/09/04 12:44:15;;;;;;;12.20;8.70;;;;;;;17.75;70.47;98503.60;106699;1273;22554;-85
2022/09/04 12:46:56;;;;;;;9.00;8.00;;;;;;;17.59;70.71;98499.73;106331;1274;22874;-90
2022/09/04 12:50:02;;;;;;;8.50;6.50;;;;;;;17.45;71.05;98502.58;106344;1274;25456;-88
2022/09/04 12:53:18;;;;;;;7.20;6.30;;;;;;;17.30;71.40;98500.36;106262;1274;22723;-88
2022/09/04 12:56:05;;;;;;;7.00;5.80;;;;;;;17.09;71.95;98504.45;106361;1274;22546;-90
2022/09/04 12:59:01;;;;;;;7.90;6.80;;;;;;;16.94;72.20;98501.17;106361;1274;22562;-90
2022/09/04 13:02:03;;;;;;;8.90;7.30;;;;;;;16.87;72.54;98501.33;106192;1274;22528;-89
2022/09/04 13:05:09;;;;;;;7.30;6.60;;;;;;;16.77;72.88;98501.25;106436;1277;23221;-90
2022/09/04 13:07:52;;;;;;;;;;;;;;;16.68;73.18;98501.01;106290;1277;22563;-91
2022/09/04 13:11:01;;;;;;;7.50;6.70;;;;;;;16.67;73.33;98499.23;106292;1277;25339;-89
2022/09/04 13:14:08;;;;;;;9.00;6.90;;;;;;;16.69;74.17;98497.61;106141;1277;25308;-87